createdAt,value
2018-06-21T00:01:03.240Z,99.90
2018-06-21T00:03:31.529Z,99.90
2018-06-21T00:05:59.848Z,99.90
2018-06-21T00:08:28.120Z,99.90
2018-06-21T00:10:56.378Z,99.90
2018-06-21T00:13:24.667Z,99.90
2018-06-21T00:15:52.963Z,99.90
2018-06-21T00:18:21.275Z,99.90
2018-06-21T00:20:49.552Z,99.90
2018-06-21T00:23:17.849Z,99.90
2018-06-21T00:25:47.061Z,99.90
2018-06-21T00:28:15.317Z,99.90
2018-06-21T00:30:43.592Z,99.90
2018-06-21T00:33:12.724Z,99.90
2018-06-21T00:35:41.768Z,99.90
2018-06-21T00:38:10.045Z,99.90
2018-06-21T00:40:38.343Z,99.90
2018-06-21T00:43:06.647Z,99.90
2018-06-21T00:45:34.904Z,99.90
2018-06-21T00:48:03.155Z,99.90
2018-06-21T00:50:31.434Z,99.90
2018-06-21T00:52:59.798Z,99.90
2018-06-21T00:55:28.092Z,99.90
2018-06-21T00:57:56.380Z,99.90
2018-06-21T01:00:24.671Z,99.90
2018-06-21T01:02:52.966Z,99.90
2018-06-21T01:05:21.255Z,99.90
2018-06-21T01:07:49.545Z,99.90
2018-06-21T01:10:17.861Z,99.90
2018-06-21T01:12:47.068Z,99.90
2018-06-21T01:15:15.346Z,99.90
2018-06-21T01:17:43.661Z,99.90
2018-06-21T01:20:12.826Z,99.90
2018-06-21T01:22:41.868Z,99.90
2018-06-21T01:25:10.137Z,99.90
2018-06-21T01:27:38.425Z,99.90
2018-06-21T01:30:06.735Z,99.90
2018-06-21T01:32:35.013Z,99.90
2018-06-21T01:35:03.312Z,99.90
2018-06-21T01:37:31.624Z,99.90
2018-06-21T01:39:59.911Z,99.90
2018-06-21T01:42:28.215Z,99.90
2018-06-21T01:44:56.507Z,99.90
2018-06-21T01:47:24.793Z,99.90
2018-06-21T01:49:53.070Z,99.90
2018-06-21T01:52:21.361Z,99.90
2018-06-21T01:54:48.872Z,99.90
2018-06-21T01:57:18.472Z,99.90
2018-06-21T01:59:46.748Z,99.90
2018-06-21T02:02:15.018Z,99.90
2018-06-21T02:04:44.296Z,99.90
2018-06-21T02:07:13.929Z,99.90
2018-06-21T02:09:42.207Z,99.90
2018-06-21T02:12:10.487Z,99.90
2018-06-21T02:14:43.029Z,99.90
2018-06-21T02:17:11.304Z,99.90
2018-06-21T02:19:39.609Z,99.90
2018-06-21T02:22:07.876Z,99.90
2018-06-21T02:24:36.169Z,99.90
2018-06-21T02:27:04.447Z,99.90
2018-06-21T02:29:32.735Z,99.90
2018-06-21T02:32:01.001Z,99.90
2018-06-21T02:34:29.295Z,99.90
2018-06-21T02:36:57.586Z,99.90
2018-06-21T02:39:25.904Z,99.90
2018-06-21T02:41:54.201Z,99.90
2018-06-21T02:44:23.418Z,99.90
2018-06-21T02:46:51.715Z,99.90
2018-06-21T02:49:19.978Z,99.90
2018-06-21T02:51:48.291Z,99.90
2018-06-21T02:54:19.702Z,99.90
2018-06-21T02:56:47.990Z,99.90
2018-06-21T02:59:16.314Z,99.90
2018-06-21T03:01:44.615Z,99.90
2018-06-21T03:04:14.090Z,99.90
2018-06-21T03:06:43.215Z,99.90
2018-06-21T03:09:12.574Z,99.90
2018-06-21T03:11:42.469Z,99.90
2018-06-21T03:14:12.486Z,99.90
2018-06-21T03:16:42.554Z,99.90
2018-06-21T03:19:12.499Z,99.90
2018-06-21T03:21:42.468Z,99.90
2018-06-21T03:24:12.508Z,99.90
2018-06-21T03:26:42.432Z,99.90
2018-06-21T03:29:10.706Z,99.90
2018-06-21T03:31:39.031Z,99.90
2018-06-21T03:34:07.297Z,99.90
2018-06-21T03:36:35.562Z,99.90
2018-06-21T03:39:03.879Z,99.90
2018-06-21T03:41:32.141Z,99.90
2018-06-21T03:44:00.425Z,99.90
2018-06-21T03:46:28.712Z,99.90
2018-06-21T03:48:57.014Z,99.90
2018-06-21T03:51:25.286Z,99.90
2018-06-21T03:53:53.598Z,99.90
2018-06-21T03:56:21.950Z,99.90
2018-06-21T03:58:50.246Z,99.90
2018-06-21T04:01:18.518Z,99.90
2018-06-21T04:03:46.836Z,99.90
2018-06-21T04:06:15.154Z,99.90
2018-06-21T04:08:43.439Z,99.90
2018-06-21T04:11:12.537Z,99.90
2018-06-21T04:13:40.833Z,99.90
2018-06-21T04:16:09.142Z,99.90
2018-06-21T04:18:37.462Z,99.90
2018-06-21T04:21:05.749Z,99.90
2018-06-21T04:23:34.025Z,99.90
2018-06-21T04:26:02.323Z,99.90
2018-06-21T04:28:30.595Z,99.90
2018-06-21T04:30:58.908Z,99.90
2018-06-21T04:33:27.186Z,99.90
2018-06-21T04:35:55.492Z,99.90
2018-06-21T04:38:23.750Z,99.90
2018-06-21T04:40:52.055Z,99.90
2018-06-21T04:43:20.319Z,99.90
2018-06-21T04:45:48.673Z,99.90
2018-06-21T04:48:16.889Z,99.90
2018-06-21T04:50:45.146Z,99.90
2018-06-21T04:53:13.460Z,99.90
2018-06-21T04:55:41.601Z,99.90
2018-06-21T04:58:09.911Z,99.90
2018-06-21T05:00:38.181Z,99.90
2018-06-21T05:03:06.470Z,99.90
2018-06-21T05:05:34.751Z,99.90
2018-06-21T05:08:03.069Z,99.90
2018-06-21T05:10:31.342Z,99.90
2018-06-21T05:12:59.624Z,99.90
2018-06-21T05:15:27.938Z,99.90
2018-06-21T05:17:56.208Z,99.90
2018-06-21T05:20:24.493Z,99.90
2018-06-21T05:22:52.801Z,99.90
2018-06-21T05:25:21.070Z,99.90
2018-06-21T05:27:49.364Z,99.90
2018-06-21T05:30:18.842Z,99.90
2018-06-21T05:32:48.120Z,99.90
2018-06-21T05:35:18.041Z,99.90
2018-06-21T05:37:46.358Z,99.90
2018-06-21T05:40:14.664Z,99.90
2018-06-21T05:42:42.194Z,99.90
2018-06-21T05:45:10.449Z,99.90
2018-06-21T05:47:38.759Z,99.90
2018-06-21T05:50:07.104Z,99.90
2018-06-21T05:52:35.343Z,99.90
2018-06-21T05:55:03.641Z,99.90
2018-06-21T05:57:31.916Z,99.90
2018-06-21T06:00:00.231Z,99.90
2018-06-21T06:02:28.532Z,99.90
2018-06-21T06:04:56.822Z,99.90
2018-06-21T06:07:25.103Z,99.90
2018-06-21T06:09:53.408Z,99.90
2018-06-21T06:12:21.679Z,99.90
2018-06-21T06:14:49.945Z,99.90
2018-06-21T06:17:18.244Z,99.90
2018-06-21T06:19:47.641Z,99.90
2018-06-21T06:22:16.358Z,99.90
2018-06-21T06:24:45.547Z,99.90
2018-06-21T06:27:13.857Z,99.90
2018-06-21T06:29:42.166Z,99.90
2018-06-21T06:32:10.439Z,99.90
2018-06-21T06:34:38.791Z,99.90
2018-06-21T06:37:07.018Z,99.90
2018-06-21T06:39:35.330Z,99.90
2018-06-21T06:42:03.614Z,99.90
2018-06-21T06:44:31.161Z,99.90
2018-06-21T06:46:59.429Z,99.90
2018-06-21T06:49:27.693Z,99.90
2018-06-21T06:51:56.000Z,99.90
2018-06-21T06:54:24.269Z,99.90
2018-06-21T06:56:52.536Z,99.90
2018-06-21T06:59:20.835Z,99.90
2018-06-21T07:01:49.137Z,99.90
2018-06-21T07:04:18.444Z,99.90
2018-06-21T07:06:47.569Z,99.90
2018-06-21T07:09:15.915Z,99.90
2018-06-21T07:11:44.213Z,99.90
2018-06-21T07:14:13.814Z,99.90
2018-06-21T07:16:42.059Z,99.90
2018-06-21T07:19:10.326Z,99.90
2018-06-21T07:21:38.628Z,99.90
2018-06-21T07:24:06.902Z,99.90
2018-06-21T07:26:34.422Z,99.90
2018-06-21T07:29:02.700Z,99.90
2018-06-21T07:31:30.990Z,99.90
2018-06-21T07:33:59.281Z,99.90
2018-06-21T07:36:27.572Z,99.90
2018-06-21T07:38:55.094Z,99.90
2018-06-21T07:41:23.390Z,99.90
2018-06-21T07:43:51.668Z,99.90
2018-06-21T07:46:19.970Z,99.90
2018-06-21T07:48:48.247Z,99.90
2018-06-21T07:51:17.824Z,99.90
2018-06-21T07:53:46.159Z,99.90
2018-06-21T07:56:13.606Z,99.90
2018-06-21T07:58:42.914Z,99.90
2018-06-21T08:01:11.273Z,99.90
2018-06-21T08:03:39.549Z,99.90
2018-06-21T08:06:21.333Z,99.90
2018-06-21T08:08:49.582Z,99.90
2018-06-21T08:11:24.250Z,99.90
2018-06-21T08:13:52.514Z,99.90
2018-06-21T08:16:20.813Z,99.90
2018-06-21T08:18:49.078Z,99.90
2018-06-21T08:21:18.499Z,99.90
2018-06-21T08:23:47.666Z,99.90
2018-06-21T08:26:16.521Z,99.90
2018-06-21T08:28:44.772Z,99.90
2018-06-21T08:31:14.086Z,99.90
2018-06-21T08:33:43.171Z,99.90
2018-06-21T08:36:12.595Z,99.90
2018-06-21T08:38:42.108Z,99.90
2018-06-21T08:41:10.431Z,99.90
2018-06-21T08:43:38.725Z,99.90
2018-06-21T08:46:07.010Z,99.90
2018-06-21T08:48:35.289Z,99.90
2018-06-21T08:51:03.549Z,99.90
2018-06-21T08:53:31.849Z,99.90
2018-06-21T08:55:59.382Z,99.90
2018-06-21T08:58:27.709Z,99.90
2018-06-21T09:00:55.975Z,99.90
2018-06-21T09:03:24.286Z,99.90
2018-06-21T09:05:52.560Z,99.90
2018-06-21T09:08:20.837Z,99.90
2018-06-21T09:10:49.130Z,99.90
2018-06-21T09:13:18.629Z,99.90
2018-06-21T09:15:46.919Z,99.90
2018-06-21T09:18:15.173Z,99.90
2018-06-21T09:20:43.457Z,99.90
2018-06-21T09:23:13.233Z,99.90
2018-06-21T09:25:42.658Z,99.90
2018-06-21T09:28:12.706Z,99.90
2018-06-21T09:30:41.678Z,99.90
2018-06-21T09:33:09.979Z,99.90
2018-06-21T09:35:38.259Z,99.90
2018-06-21T09:38:06.597Z,99.90
2018-06-21T09:43:50.293Z,99.90
2018-06-21T09:46:07.439Z,99.90
2018-06-21T09:48:35.779Z,99.90
2018-06-21T09:51:04.047Z,99.90
2018-06-21T09:53:32.350Z,99.90
2018-06-21T09:56:00.608Z,99.90
2018-06-21T09:58:29.893Z,99.90
2018-06-21T10:00:58.154Z,99.90
2018-06-21T10:03:26.481Z,99.90
2018-06-21T10:05:54.756Z,99.90
2018-06-21T10:08:23.049Z,99.90
2018-06-21T10:10:51.320Z,99.90
2018-06-21T10:13:18.863Z,99.90
2018-06-21T10:15:48.388Z,99.90
2018-06-21T10:18:18.101Z,99.90
2018-06-21T10:20:47.419Z,99.90
2018-06-21T10:23:16.472Z,99.90
2018-06-21T10:25:44.726Z,99.90
2018-06-21T10:28:14.265Z,99.90
2018-06-21T10:30:43.695Z,99.90
2018-06-21T10:33:12.832Z,99.90
2018-06-21T10:35:41.121Z,99.90
2018-06-21T10:38:09.396Z,99.90
2018-06-21T10:40:37.692Z,99.90
2018-06-21T10:43:05.953Z,99.90
2018-06-21T10:45:34.257Z,99.90
2018-06-21T10:48:02.514Z,99.60
2018-06-21T10:50:30.786Z,99.30
2018-06-21T10:52:59.081Z,99.80
2018-06-21T10:55:27.341Z,99.90
2018-06-21T10:57:55.643Z,99.90
2018-06-21T11:00:23.914Z,98.80
2018-06-21T11:02:52.209Z,97.10
2018-06-21T11:05:20.491Z,98.20
2018-06-21T11:07:48.785Z,99.10
2018-06-21T11:10:17.064Z,99.90
2018-06-21T11:12:45.363Z,99.90
2018-06-21T11:15:13.651Z,99.90
2018-06-21T11:17:43.032Z,97.90
2018-06-21T11:20:12.339Z,96.30
2018-06-21T11:22:40.606Z,96.90
2018-06-21T11:25:08.892Z,96.50
2018-06-21T11:27:37.180Z,96.80
2018-06-21T11:30:05.490Z,96.00
2018-06-21T11:32:33.759Z,96.20
2018-06-21T11:35:02.057Z,94.30
2018-06-21T11:37:30.331Z,94.70
2018-06-21T11:39:58.625Z,93.20
2018-06-21T11:42:26.889Z,94.40
2018-06-21T11:44:55.191Z,92.80
2018-06-21T11:47:23.488Z,93.40
2018-06-21T11:49:51.767Z,94.90
2018-06-21T11:52:20.107Z,95.60
2018-06-21T11:54:48.367Z,95.00
2018-06-21T11:57:17.334Z,93.00
2018-06-21T11:59:45.636Z,92.40
2018-06-21T12:02:14.072Z,92.40
2018-06-21T12:04:43.275Z,95.10
2018-06-21T12:07:12.673Z,92.90
2018-06-21T12:09:41.642Z,91.50
2018-06-21T12:12:09.944Z,91.50
2018-06-21T12:14:38.258Z,90.60
2018-06-21T12:17:06.581Z,93.80
2018-06-21T12:19:34.892Z,90.90
2018-06-21T12:22:03.196Z,90.80
2018-06-21T12:24:34.915Z,92.70
2018-06-21T12:27:02.415Z,92.80
2018-06-21T12:29:30.711Z,92.40
2018-06-21T12:31:59.006Z,92.50
2018-06-21T12:34:27.315Z,92.90
2018-06-21T12:36:55.607Z,93.20
2018-06-21T12:39:23.881Z,92.00
2018-06-21T12:41:52.185Z,91.10
2018-06-21T12:44:20.451Z,92.20
2018-06-21T12:46:48.732Z,91.60
2018-06-21T12:49:16.989Z,91.40
2018-06-21T12:51:45.273Z,91.50
2018-06-21T12:54:14.443Z,91.80
2018-06-21T12:56:43.700Z,90.80
2018-06-21T12:59:12.866Z,91.80
2018-06-21T13:01:41.185Z,90.70
2018-06-21T13:04:09.489Z,91.40
2018-06-21T13:06:37.787Z,91.80
2018-06-21T13:22:25.566Z,92.20
2018-06-21T13:24:53.868Z,87.30
2018-06-21T13:27:22.125Z,86.10
2018-06-21T13:29:50.745Z,84.30
2018-06-21T13:32:19.024Z,86.50
2018-06-21T13:34:48.239Z,87.60
2018-06-21T13:37:15.757Z,87.60
2018-06-21T13:39:44.071Z,87.70
2018-06-21T13:42:13.325Z,90.20
2018-06-21T13:44:42.675Z,89.20
2018-06-21T13:47:11.812Z,88.60
2018-06-21T13:49:40.041Z,90.80
2018-06-21T13:52:08.325Z,87.40
2018-06-21T13:54:35.847Z,87.30
2018-06-21T13:57:04.146Z,88.30
2018-06-21T13:59:32.701Z,89.20
2018-06-21T14:02:00.991Z,90.40
2018-06-21T14:04:30.159Z,91.60
2018-06-21T14:06:58.450Z,90.90
2018-06-21T14:09:26.718Z,90.20
2018-06-21T14:11:55.005Z,90.00
2018-06-21T14:14:23.271Z,88.40
2018-06-21T14:16:51.567Z,89.90
2018-06-21T14:19:19.887Z,86.90
2018-06-21T14:21:48.153Z,90.00
2018-06-21T14:24:18.288Z,91.00
2018-06-21T14:26:46.553Z,89.90
2018-06-21T14:29:14.847Z,91.00
2018-06-21T14:31:44.284Z,91.20
2018-06-21T14:34:13.478Z,91.10
2018-06-21T14:36:42.953Z,91.30
2018-06-21T14:39:11.270Z,91.90
2018-06-21T14:41:39.540Z,92.20
2018-06-21T14:44:07.839Z,92.10
2018-06-21T14:46:36.143Z,92.60
2018-06-21T14:49:04.443Z,92.80
2018-06-21T14:51:32.737Z,93.00
2018-06-21T14:54:01.012Z,92.80
2018-06-21T14:56:29.282Z,93.50
2018-06-21T14:58:57.582Z,92.40
2018-06-21T15:01:25.842Z,92.80
2018-06-21T15:03:54.192Z,92.80
2018-06-21T15:06:22.508Z,93.20
2018-06-21T15:08:50.798Z,92.80
2018-06-21T15:11:19.087Z,94.10
2018-06-21T15:13:48.341Z,93.70
2018-06-21T15:16:17.298Z,94.10
2018-06-21T15:18:45.554Z,96.20
2018-06-21T15:21:13.850Z,95.70
2018-06-21T15:23:42.196Z,94.50
2018-06-21T15:26:10.490Z,93.90
2018-06-21T15:28:38.737Z,93.20
2018-06-21T15:31:07.056Z,94.50
2018-06-21T15:33:35.331Z,94.80
2018-06-21T15:36:03.603Z,93.90
2018-06-21T15:38:32.811Z,95.50
2018-06-21T15:41:01.078Z,95.00
2018-06-21T15:43:29.379Z,95.60
2018-06-21T15:45:57.656Z,94.90
2018-06-21T15:48:25.944Z,94.60
2018-06-21T15:50:54.200Z,96.20
2018-06-21T15:53:22.489Z,95.70
2018-06-21T15:55:50.745Z,96.80
2018-06-21T15:58:19.026Z,96.20
2018-06-21T16:00:48.454Z,95.60
2018-06-21T16:03:17.499Z,96.20
2018-06-21T16:05:45.759Z,95.70
2018-06-21T16:08:14.014Z,97.00
2018-06-21T16:10:43.462Z,98.30
2018-06-21T16:13:12.587Z,98.80
2018-06-21T16:15:42.602Z,99.80
2018-06-21T16:18:12.473Z,99.60
2018-06-21T16:20:41.996Z,99.90
2018-06-21T16:23:10.254Z,99.90
2018-06-21T16:25:37.805Z,99.90
2018-06-21T16:28:06.073Z,99.90
2018-06-21T16:30:34.363Z,99.90
2018-06-21T16:33:02.655Z,99.60
2018-06-21T16:35:30.959Z,99.60
2018-06-21T16:37:59.230Z,99.90
2018-06-21T16:40:27.514Z,99.80
2018-06-21T16:42:55.811Z,98.90
2018-06-21T16:45:24.074Z,98.40
2018-06-21T16:47:52.358Z,99.90
2018-06-21T16:50:20.651Z,99.90
2018-06-21T16:52:49.255Z,98.90
2018-06-21T16:55:18.716Z,98.60
2018-06-21T16:57:47.426Z,98.50
2018-06-21T17:00:15.722Z,98.20
2018-06-21T17:02:44.007Z,99.80
2018-06-21T17:05:12.642Z,98.60
2018-06-21T17:07:42.450Z,99.50
2018-06-21T17:10:10.825Z,99.40
2018-06-21T17:12:39.108Z,99.80
2018-06-21T17:15:07.360Z,99.80
2018-06-21T17:17:35.648Z,99.90
2018-06-21T17:20:03.915Z,99.90
2018-06-21T17:22:32.223Z,99.90
2018-06-21T17:24:59.753Z,99.90
2018-06-21T17:27:28.005Z,99.90
2018-06-21T17:29:56.300Z,99.90
2018-06-21T17:32:24.575Z,99.90
2018-06-21T17:34:52.861Z,99.90
2018-06-21T17:37:21.127Z,99.90
2018-06-21T17:39:49.428Z,99.80
2018-06-21T17:42:18.811Z,98.00
2018-06-21T17:44:47.437Z,98.10
2018-06-21T17:47:15.735Z,97.80
2018-06-21T17:49:44.005Z,98.20
2018-06-21T17:52:12.705Z,99.90
2018-06-21T17:54:44.318Z,99.90
2018-06-21T17:57:13.702Z,99.90
2018-06-21T17:59:42.814Z,99.90
2018-06-21T18:02:10.311Z,99.90
2018-06-21T18:04:42.307Z,99.90
2018-06-21T18:07:10.562Z,99.90
2018-06-21T18:09:38.840Z,99.90
2018-06-21T18:12:07.137Z,99.90
2018-06-21T18:14:35.407Z,99.90
2018-06-21T18:17:03.696Z,99.90
2018-06-21T18:19:32.009Z,99.90
2018-06-21T18:22:00.255Z,99.90
2018-06-21T18:24:28.510Z,99.90
2018-06-21T18:26:56.798Z,99.90
2018-06-21T18:29:25.063Z,99.90
2018-06-21T18:31:53.360Z,99.90
2018-06-21T18:34:22.553Z,99.90
2018-06-21T18:36:50.851Z,99.90
2018-06-21T18:39:19.131Z,99.90
2018-06-21T18:41:48.393Z,99.90
2018-06-21T18:44:20.269Z,99.90
2018-06-21T18:46:48.545Z,99.90
2018-06-21T18:49:17.820Z,99.90
2018-06-21T18:51:46.156Z,99.90
2018-06-21T18:54:14.467Z,99.90
2018-06-21T18:56:43.946Z,99.90
2018-06-21T18:59:12.205Z,99.90
2018-06-21T19:01:40.498Z,99.90
2018-06-21T19:04:08.821Z,99.90
2018-06-21T19:06:37.093Z,99.90
2018-06-21T19:09:22.239Z,99.90
2018-06-21T19:11:58.508Z,99.90
2018-06-21T19:14:26.791Z,99.90
2018-06-21T19:16:55.042Z,99.90
2018-06-21T19:19:26.333Z,99.90
2018-06-21T19:21:54.540Z,99.90
2018-06-21T19:24:23.733Z,99.90
2018-06-21T19:26:51.993Z,99.90
2018-06-21T19:29:20.280Z,99.90
2018-06-21T19:31:48.538Z,99.90
2018-06-21T19:34:18.748Z,99.90
2018-06-21T19:36:47.473Z,99.90
2018-06-21T19:39:15.787Z,99.90
2018-06-21T19:41:44.087Z,99.90
2018-06-21T19:44:13.347Z,99.90
2018-06-21T19:46:43.007Z,99.90
2018-06-21T19:49:10.516Z,99.90
2018-06-21T19:51:38.802Z,99.90
2018-06-21T19:54:07.160Z,99.90
2018-06-21T19:56:35.376Z,99.90
2018-06-21T19:59:03.687Z,99.90
2018-06-21T20:01:31.995Z,99.90
2018-06-21T20:04:00.279Z,99.90
2018-06-21T20:06:28.580Z,99.90
2018-06-21T20:08:56.886Z,99.90
2018-06-21T20:11:25.174Z,99.90
2018-06-21T20:13:53.440Z,99.90
2018-06-21T20:16:21.743Z,99.90
2018-06-21T20:18:49.233Z,99.90
2018-06-21T20:21:18.715Z,99.90
2018-06-21T20:23:47.838Z,99.90
2018-06-21T20:26:16.191Z,99.90
2018-06-21T20:28:44.459Z,99.90
2018-06-21T20:31:13.331Z,99.90
2018-06-21T20:33:42.503Z,99.90
2018-06-21T20:36:10.776Z,99.90
2018-06-21T20:38:39.080Z,99.90
2018-06-21T20:41:07.350Z,99.90
2018-06-21T20:43:35.601Z,99.90
2018-06-21T20:46:03.889Z,99.90
2018-06-21T20:48:32.170Z,99.90
2018-06-21T20:51:00.459Z,99.90
2018-06-21T20:53:28.722Z,99.90
2018-06-21T20:55:57.042Z,99.90
2018-06-21T20:58:25.304Z,99.90
2018-06-21T21:00:53.579Z,99.90
2018-06-21T21:03:21.882Z,99.90
2018-06-21T21:05:50.209Z,99.90
2018-06-21T21:08:18.482Z,99.90
2018-06-21T21:10:47.464Z,99.90
2018-06-21T21:13:15.735Z,99.90
2018-06-21T21:15:44.021Z,99.90
2018-06-21T21:18:12.397Z,99.90
2018-06-21T21:20:40.585Z,99.90
2018-06-21T21:23:08.949Z,99.90
2018-06-21T21:25:37.218Z,99.90
2018-06-21T21:28:05.492Z,99.90
2018-06-21T21:30:33.755Z,99.90
2018-06-21T21:33:02.031Z,99.90
2018-06-21T21:35:30.327Z,99.90
2018-06-21T21:37:58.585Z,99.90
2018-06-21T21:40:26.892Z,99.90
2018-06-21T21:42:55.184Z,99.90
2018-06-21T21:45:23.445Z,99.90
2018-06-21T21:47:51.730Z,99.90
2018-06-21T21:50:20.033Z,99.90
2018-06-21T21:52:48.336Z,99.90
2018-06-21T21:55:17.714Z,99.90
2018-06-21T21:57:46.667Z,99.90
2018-06-21T22:00:14.931Z,99.90
2018-06-21T22:02:44.059Z,99.90
2018-06-21T22:05:12.781Z,99.90
2018-06-21T22:07:41.851Z,99.90
2018-06-21T22:10:10.137Z,99.90
2018-06-21T22:12:38.397Z,99.90
2018-06-21T22:15:06.695Z,99.90
2018-06-21T22:17:34.975Z,99.90
2018-06-21T22:20:03.277Z,99.90
2018-06-21T22:22:31.548Z,99.90
2018-06-21T22:24:59.839Z,99.90
2018-06-21T22:27:28.138Z,99.90
2018-06-21T22:29:56.414Z,99.90
2018-06-21T22:32:24.720Z,99.90
2018-06-21T22:34:52.999Z,99.90
2018-06-21T22:37:21.306Z,99.90
2018-06-21T22:39:49.569Z,99.90
2018-06-21T22:42:18.700Z,99.90
2018-06-21T22:44:48.019Z,99.90
2018-06-21T22:47:16.756Z,99.90
2018-06-21T22:49:45.059Z,99.90
2018-06-21T22:52:13.333Z,99.90
2018-06-21T22:54:43.096Z,99.90
2018-06-21T22:57:12.621Z,99.90
2018-06-21T22:59:41.625Z,99.90
2018-06-21T23:02:09.901Z,99.90
2018-06-21T23:04:38.200Z,99.90
2018-06-21T23:07:06.453Z,99.90
2018-06-21T23:09:34.734Z,99.90
2018-06-21T23:12:02.997Z,99.90
2018-06-21T23:14:31.352Z,99.90
2018-06-21T23:16:59.573Z,99.90
2018-06-21T23:19:27.840Z,99.90
2018-06-21T23:21:56.126Z,99.90
2018-06-21T23:24:24.391Z,99.90
2018-06-21T23:26:52.740Z,99.90
2018-06-21T23:29:20.973Z,99.90
2018-06-21T23:31:49.251Z,99.90
2018-06-21T23:34:18.171Z,99.90
2018-06-21T23:36:47.602Z,99.90
2018-06-21T23:39:15.879Z,99.90
2018-06-21T23:41:44.175Z,99.90
2018-06-21T23:44:13.533Z,99.90
2018-06-21T23:46:42.821Z,99.90
2018-06-21T23:49:11.866Z,99.90
2018-06-21T23:51:40.158Z,99.90
2018-06-21T23:54:08.439Z,99.90
2018-06-21T23:56:36.740Z,99.90
2018-06-21T23:59:05.016Z,99.90
